Time;durP1;ratioP1;P1;durP2;ratioP2;P2;SDS_P1;SDS_P2;PMS_P1;PMS_P2;Temp;Humidity;BMP_temperature;BMP_pressure;BME280_temperature;BME280_humidity;BME280_pressure;Samples;Min_cycle;Max_cycle;Signal;HPM_P1;HPM_P2
2022/02/02 00:02:18;;;;;;;37.55;16.73;;;;;;;-3.85;82.30;96818.05;1716410;81;21072;-74
2022/02/02 00:04:00;;;;;;;36.75;16.50;;;;;;;-3.87;82.33;96809.39;1695254;82;21037;-74
2022/02/02 00:06:36;;;;;;;42.20;17.92;;;;;;;-3.91;82.41;96808.95;1717940;83;21048;-74
2022/02/02 00:21:18;;;;;;;45.55;17.05;;;;;;;-4.07;82.33;96804.91;1756257;82;21098;-74
2022/02/02 00:23:41;;;;;;;31.45;15.35;;;;;;;-4.11;82.15;96811.78;1754650;81;21078;-74
2022/02/02 00:26:10;;;;;;;38.30;16.93;;;;;;;-4.16;82.17;96804.84;1744365;82;21009;-74
2022/02/02 00:28:38;;;;;;;32.75;14.98;;;;;;;-4.18;82.08;96801.36;1716820;83;21472;-74
2022/02/02 00:31:06;;;;;;;39.35;16.02;;;;;;;-4.24;82.21;96805.63;1717241;83;21005;-74
2022/02/02 00:33:36;;;;;;;37.78;15.85;;;;;;;-4.25;82.06;96803.90;1717530;83;21494;-74
2022/02/02 00:36:07;;;;;;;39.08;15.32;;;;;;;-4.29;82.08;96809.01;1717154;83;21477;-74
2022/02/02 00:38:29;;;;;;;33.58;14.65;;;;;;;-4.34;82.20;96806.80;1731182;82;21028;-74
2022/02/02 00:40:57;;;;;;;34.15;15.00;;;;;;;-4.35;82.15;96802.48;1718030;83;21088;-74
2022/02/02 00:43:26;;;;;;;38.23;15.00;;;;;;;-4.39;82.18;96816.67;1756181;81;21501;-74
2022/02/02 00:45:57;;;;;;;43.35;16.55;;;;;;;-4.41;82.21;96814.92;1723053;82;21060;-73
2022/02/02 00:48:27;;;;;;;36.50;15.45;;;;;;;-4.40;82.37;96811.06;1717897;83;21482;-73
2022/02/02 00:50:54;;;;;;;33.75;14.05;;;;;;;-4.43;82.28;96802.00;1733368;82;21048;-73
2022/02/02 00:53:21;;;;;;;32.48;13.60;;;;;;;-4.47;82.08;96800.23;1717881;83;21021;-74
2022/02/02 00:55:48;;;;;;;31.62;13.75;;;;;;;-4.49;82.18;96790.72;1743155;81;21017;-74
2022/02/02 00:58:14;;;;;;;37.25;14.23;;;;;;;-4.54;82.04;96793.23;1737224;83;20993;-73
2022/02/02 01:00:41;;;;;;;28.95;13.40;;;;;;;-4.58;82.10;96791.05;1708360;84;21040;-73
2022/02/02 01:03:07;;;;;;;37.42;14.28;;;;;;;-4.59;82.22;96785.45;1708286;84;21117;-73
2022/02/02 01:05:34;;;;;;;34.25;13.68;;;;;;;-4.58;82.26;96778.13;1724553;83;21012;-73
2022/02/02 01:08:40;;;;;;;30.80;14.28;;;;;;;-4.57;82.10;96777.71;1725360;82;21055;-73
2022/02/02 01:10:55;;;;;;;30.55;14.07;;;;;;;-4.62;82.04;96774.21;1710879;83;21057;-73
2022/02/02 01:20:57;;;;;;;41.80;14.98;;;;;;;-4.77;82.04;96767.58;1718728;83;21005;-73
2022/02/02 01:28:41;;;;;;;33.28;13.28;;;;;;;-4.79;82.03;96754.19;1725495;83;20989;-74
2022/02/02 01:31:12;;;;;;;29.87;12.40;;;;;;;-4.82;82.00;96759.34;1725398;82;21086;-73
2022/02/02 01:33:39;;;;;;;28.15;12.60;;;;;;;-4.86;82.07;96751.11;1711528;83;21041;-73
2022/02/02 01:36:06;;;;;;;29.05;13.20;;;;;;;-4.92;82.06;96751.90;1706699;84;21017;-72
2022/02/02 01:38:35;;;;;;;33.85;14.53;;;;;;;-4.95;82.14;96743.69;1706593;84;21064;-72
2022/02/02 01:41:07;;;;;;;29.15;12.28;;;;;;;-4.95;82.12;96742.39;1697889;83;21009;-72
2022/02/02 01:43:38;;;;;;;28.32;12.18;;;;;;;-4.96;82.19;96732.91;1652066;87;21048;-72
2022/02/02 01:46:03;;;;;;;30.00;13.48;;;;;;;-4.96;82.10;96724.28;1644134;87;21150;-72
2022/02/02 01:48:31;;;;;;;26.93;12.63;;;;;;;-4.95;82.33;96724.72;1665153;85;21033;-72
2022/02/02 01:56:09;;;;;;;26.65;11.90;;;;;;;-4.94;82.14;96726.48;1748554;82;21068;-76
2022/02/02 02:01:13;;;;;;;28.30;13.35;;;;;;;-5.01;82.14;96719.08;1722049;83;20993;-74
2022/02/02 02:03:40;;;;;;;30.37;12.98;;;;;;;-5.05;82.07;96716.89;1722040;83;21064;-74
2022/02/02 02:06:08;;;;;;;32.15;13.13;;;;;;;-5.05;82.21;96716.89;1722137;83;21056;-74
2022/02/02 02:08:37;;;;;;;26.82;12.37;;;;;;;-5.04;82.20;96722.91;1721912;83;20973;-74
2022/02/02 02:11:08;;;;;;;26.75;12.50;;;;;;;-5.07;82.08;96726.33;1732822;80;21013;-74
2022/02/02 02:16:11;;;;;;;31.35;12.95;;;;;;;-5.11;82.08;96724.55;1741376;82;21015;-74
2022/02/02 02:18:37;;;;;;;26.70;13.10;;;;;;;-5.13;82.12;96732.72;1741195;82;21039;-75
2022/02/02 02:21:10;;;;;;;29.90;13.20;;;;;;;-5.15;82.26;96739.56;1741129;82;21516;-75
2022/02/02 02:23:32;;;;;;;34.98;15.05;;;;;;;-5.14;82.17;96737.86;1752451;81;21017;-75
2022/02/02 02:25:59;;;;;;;42.80;19.77;;;;;;;-5.18;82.28;96737.81;1753449;82;21016;-74
2022/02/02 02:28:42;;;;;;;44.35;18.75;;;;;;;-5.20;82.49;96739.52;1753395;82;21566;-74
2022/02/02 02:31:04;;;;;;;52.23;22.60;;;;;;;-5.17;82.63;96728.36;1751682;81;21117;-75
2022/02/02 02:36:33;;;;;;;53.17;23.83;;;;;;;-5.09;82.62;96734.91;1723596;83;20989;-73
2022/02/02 02:57:53;;;;;;;53.60;21.93;;;;;;;-5.17;82.74;96712.86;1730407;83;21017;-74
2022/02/02 03:00:33;;;;;;;54.13;22.98;;;;;;;-5.10;82.71;96718.97;1728695;83;20997;-73
2022/02/02 03:14:33;;;;;;;63.40;26.12;;;;;;;-4.91;82.65;96704.11;1730395;83;21006;-73
2022/02/02 03:30:07;;;;;;;67.72;26.40;;;;;;;-4.44;83.20;96701.11;1705621;83;20967;-74
2022/02/02 03:49:14;;;;;;;73.92;27.32;;;;;;;-4.44;83.32;96690.77;1652567;86;21069;-74
2022/02/02 04:00:18;;;;;;;;;;;;;;;-4.08;84.92;96709.17;1709419;84;21025;-74
2022/02/02 04:02:19;;;;;;;77.10;24.20;;;;;;;-4.07;84.64;96704.42;1700339;84;20129;-73
2022/02/02 04:07:23;;;;;;;72.47;27.07;;;;;;;-4.08;84.08;96699.67;1725521;83;21036;-73
2022/02/02 04:09:49;;;;;;;73.97;27.55;;;;;;;-4.05;84.78;96693.65;1724628;83;21013;-73
2022/02/02 04:37:18;;;;;;;76.10;27.65;;;;;;;-4.08;84.02;96678.97;1737609;83;21688;-73
2022/02/02 04:53:31;;;;;;;60.08;23.75;;;;;;;-4.14;84.82;96678.52;1737914;82;21080;-73
2022/02/02 05:06:00;;;;;;;55.75;23.00;;;;;;;-3.86;84.19;96671.36;1660082;85;20997;-73
2022/02/02 05:08:42;;;;;;;59.33;23.87;;;;;;;-3.88;84.11;96667.46;1716320;83;21092;-73
2022/02/02 05:16:34;;;;;;;62.17;24.12;;;;;;;-3.82;84.11;96679.55;1725567;82;21371;-74
2022/02/02 05:51:10;;;;;;;58.63;22.87;;;;;;;-3.81;83.82;96637.30;1726835;83;21489;-73
2022/02/02 05:53:26;;;;;;;62.03;23.70;;;;;;;-3.85;83.88;96637.69;1721935;83;21371;-73
2022/02/02 05:55:53;;;;;;;60.67;24.02;;;;;;;-3.90;83.91;96630.33;1706642;83;21455;-73
2022/02/02 05:58:27;;;;;;;64.75;25.43;;;;;;;-3.86;84.08;96624.77;1706867;84;21005;-74
2022/02/02 06:00:57;;;;;;;58.95;24.12;;;;;;;-3.88;84.01;96622.58;1713725;83;21470;-74
2022/02/02 06:03:44;;;;;;;68.22;25.32;;;;;;;-3.92;84.20;96624.29;1726413;83;21025;-74
2022/02/02 06:06:12;;;;;;;63.10;24.10;;;;;;;-3.89;84.22;96634.67;1737253;83;21033;-73
2022/02/02 06:08:47;;;;;;;68.67;25.15;;;;;;;-3.90;83.99;96631.63;1737591;83;21033;-73
2022/02/02 06:11:22;;;;;;;59.90;25.27;;;;;;;-3.93;83.86;96629.04;1716893;83;20985;-74
2022/02/02 06:13:54;;;;;;;67.80;25.02;;;;;;;-3.95;83.93;96632.03;1707817;84;21006;-73
2022/02/02 06:16:23;;;;;;;58.83;24.55;;;;;;;-3.91;84.17;96636.81;1708724;83;21025;-73
2022/02/02 06:18:55;;;;;;;64.55;27.13;;;;;;;-3.86;84.04;96637.70;1706702;84;21045;-73
2022/02/02 06:21:24;;;;;;;77.10;27.32;;;;;;;-3.81;84.26;96644.19;1705978;83;21318;-73
2022/02/02 06:23:58;;;;;;;78.15;29.23;;;;;;;-3.75;84.53;96636.03;1706944;84;21411;-73
2022/02/02 06:26:27;;;;;;;71.45;29.00;;;;;;;-3.65;84.48;96637.38;1705070;84;21439;-73
2022/02/02 06:28:57;;;;;;;78.35;28.38;;;;;;;-3.59;84.03;96633.09;1727101;83;21017;-73
2022/02/02 06:31:27;;;;;;;66.75;27.17;;;;;;;-3.49;84.27;96635.72;1737834;83;21427;-73
2022/02/02 06:33:58;;;;;;;74.10;29.63;;;;;;;-3.45;84.36;96640.03;1737642;83;21021;-73
2022/02/02 06:36:29;;;;;;;73.80;29.50;;;;;;;-3.40;84.14;96641.36;1737574;83;21048;-73
2022/02/02 06:38:56;;;;;;;72.95;29.10;;;;;;;-3.35;83.94;96646.13;1737598;83;21029;-73
2022/02/02 06:41:28;;;;;;;71.12;29.92;;;;;;;-3.31;83.99;96647.87;1712440;83;21021;-73
2022/02/02 06:43:56;;;;;;;84.13;29.77;;;;;;;-3.28;83.54;96653.05;1706559;84;21447;-74
2022/02/02 06:46:28;;;;;;;76.22;29.72;;;;;;;-3.29;83.50;96651.33;1706777;84;21041;-74
2022/02/02 06:48:53;;;;;;;68.17;28.75;;;;;;;-3.28;83.56;96647.87;1706542;84;21037;-73
2022/02/02 06:51:31;;;;;;;73.22;29.42;;;;;;;-3.21;83.86;96646.17;1706780;84;21018;-73
2022/02/02 06:54:24;;;;;;;78.00;29.30;;;;;;;-3.17;83.92;96636.70;1723253;83;21062;-74
2022/02/02 06:56:58;;;;;;;71.42;28.38;;;;;;;-3.12;83.65;96631.09;1730734;80;21013;-73
2022/02/02 06:59:37;;;;;;;80.60;33.28;;;;;;;-3.05;83.61;96628.52;1706735;83;21041;-74
2022/02/02 07:07:58;;;;;;;70.75;30.32;;;;;;;-2.97;83.67;96620.75;1729711;82;21412;-74
2022/02/02 07:10:30;;;;;;;69.62;28.85;;;;;;;-2.91;83.32;96613.40;1715953;83;20970;-74
2022/02/02 07:13:25;;;;;;;68.25;27.17;;;;;;;-2.87;83.29;96607.81;1716070;83;21053;-74
2022/02/02 07:16:10;;;;;;;62.10;27.15;;;;;;;-2.79;83.42;96605.65;1710085;83;21373;-74
2022/02/02 07:23:48;;;;;;;72.58;28.75;;;;;;;-2.56;83.11;96604.80;1702104;84;21049;-74
2022/02/02 07:26:22;;;;;;;62.53;27.15;;;;;;;-2.48;82.87;96608.69;1725446;83;20994;-74
2022/02/02 07:33:53;;;;;;;56.48;25.23;;;;;;;-2.41;82.66;96592.24;1731318;83;20982;-73
2022/02/02 07:36:31;;;;;;;60.35;25.60;;;;;;;-2.45;82.66;96590.51;1717816;83;20991;-75
2022/02/02 07:39:06;;;;;;;58.92;26.00;;;;;;;-2.42;82.61;96589.64;1682534;84;21085;-75
2022/02/02 07:41:36;;;;;;;54.15;25.15;;;;;;;-2.37;82.77;96586.61;1681907;85;21439;-72
2022/02/02 07:44:17;;;;;;;57.88;25.90;;;;;;;-2.30;82.59;96595.25;1694266;83;21355;-74
2022/02/02 07:46:44;;;;;;;62.05;25.20;;;;;;;-2.21;82.63;96584.02;1703882;83;21414;-74
2022/02/02 07:49:14;;;;;;;62.15;26.25;;;;;;;-2.14;82.58;96585.72;1729229;83;21002;-73
2022/02/02 07:51:42;;;;;;;57.08;24.63;;;;;;;-2.06;82.29;96588.30;1731195;83;21601;-73
2022/02/02 07:54:17;;;;;;;64.55;26.45;;;;;;;-2.04;82.04;96588.72;1731175;83;21380;-73
2022/02/02 07:56:42;;;;;;;61.28;25.85;;;;;;;-2.01;82.16;96591.75;1710620;83;21004;-74
2022/02/02 07:59:19;;;;;;;62.23;26.57;;;;;;;-1.94;82.07;96590.00;1730522;82;21033;-74
2022/02/02 08:01:46;;;;;;;61.53;25.68;;;;;;;-1.88;82.23;96602.96;1730477;83;21455;-73
2022/02/02 08:04:14;;;;;;;63.70;27.40;;;;;;;-1.81;82.21;96588.23;1756397;82;20988;-74
2022/02/02 08:06:44;;;;;;;62.58;27.45;;;;;;;-1.73;81.65;96594.27;1755729;82;21007;-74
2022/02/02 08:09:15;;;;;;;63.90;27.70;;;;;;;-1.76;81.38;96586.06;1737691;82;21389;-74
2022/02/02 08:11:39;;;;;;;66.40;27.80;;;;;;;-1.77;81.51;96601.22;1740139;82;21016;-74
2022/02/02 08:14:06;;;;;;;59.60;26.20;;;;;;;-1.69;81.66;96598.59;1734209;82;21410;-74
2022/02/02 08:16:37;;;;;;;61.48;24.40;;;;;;;-1.60;81.79;96587.30;1736789;80;21004;-74
2022/02/02 08:19:04;;;;;;;56.15;24.35;;;;;;;-1.50;81.40;96582.94;1744961;82;21059;-74
2022/02/02 08:21:30;;;;;;;57.50;24.37;;;;;;;-1.37;81.58;96575.94;1749923;82;20937;-75
2022/02/02 08:23:57;;;;;;;58.85;25.30;;;;;;;-1.27;81.32;96580.64;1747450;82;21015;-74
2022/02/02 08:26:23;;;;;;;58.45;24.25;;;;;;;-1.21;81.16;96578.87;1745290;82;20972;-74
2022/02/02 08:28:52;;;;;;;56.05;23.62;;;;;;;-1.12;80.49;96581.84;1747131;82;21004;-74
2022/02/02 08:31:19;;;;;;;57.62;22.67;;;;;;;-1.13;80.15;96580.58;1738256;82;20970;-74
2022/02/02 08:33:49;;;;;;;54.38;24.50;;;;;;;-1.19;79.41;96584.07;1706113;83;21403;-74
2022/02/02 08:36:17;;;;;;;55.05;23.73;;;;;;;-1.15;80.14;96575.39;1742184;82;20974;-75
2022/02/02 08:38:52;;;;;;;54.67;23.00;;;;;;;-1.09;80.26;96575.77;1743910;82;20979;-75
2022/02/02 08:43:56;;;;;;;51.80;22.10;;;;;;;-0.84;80.29;96569.97;1726308;83;21136;-75
2022/02/02 08:46:33;;;;;;;52.00;21.48;;;;;;;-0.75;79.50;96570.78;1736268;82;21024;-74
2022/02/02 08:48:57;;;;;;;52.13;21.15;;;;;;;-0.71;79.46;96564.23;1752777;80;21020;-74
2022/02/02 08:51:30;;;;;;;56.80;23.83;;;;;;;-0.72;78.24;96561.63;1724942;83;21025;-74
2022/02/02 08:59:08;;;;;;;49.03;21.23;;;;;;;-0.34;78.82;96555.70;1738093;80;21020;-74
2022/02/02 09:01:32;;;;;;;52.27;21.20;;;;;;;-0.26;78.80;96544.75;1743677;82;21002;-71
2022/02/02 09:06:43;;;;;;;56.10;23.10;;;;;;;-0.24;78.17;96551.25;1745221;81;21357;-72
2022/02/02 09:09:16;;;;;;;53.20;21.95;;;;;;;-0.32;77.94;96553.93;1735987;82;21000;-73
2022/02/02 09:25:15;;;;;;;;;;;;;;;-0.08;78.09;96550.66;1741859;82;21437;-74
2022/02/02 09:35:55;;;;;;;51.28;21.90;;;;;;;0.55;76.06;96541.23;1745532;81;20985;-74
2022/02/02 09:38:22;;;;;;;52.23;23.57;;;;;;;0.65;74.87;96551.09;1749329;81;21018;-74
2022/02/02 09:43:28;;;;;;;53.30;24.30;;;;;;;0.84;75.00;96545.19;1722985;83;21024;-73
2022/02/02 09:46:01;;;;;;;45.63;23.15;;;;;;;0.99;75.90;96540.17;1724399;82;21095;-71
2022/02/02 09:48:29;;;;;;;47.70;22.55;;;;;;;1.20;76.09;96529.45;1739713;81;20975;-72
2022/02/02 09:50:58;;;;;;;47.30;23.12;;;;;;;1.33;74.51;96533.59;1737774;82;21081;-72
2022/02/02 09:53:34;;;;;;;43.20;20.80;;;;;;;1.45;74.33;96528.58;1750823;81;21060;-71
2022/02/02 10:01:41;;;;;;;39.85;18.92;;;;;;;1.94;74.09;96531.20;1727884;82;21119;-72
2022/02/02 10:06:22;;;;;;;40.35;17.90;;;;;;;2.21;73.81;96520.66;1737848;82;22107;-73
2022/02/02 10:14:28;;;;;;;;;;;;;;;2.14;71.42;96505.13;1736497;82;21092;-72
2022/02/02 10:16:55;;;;;;;32.23;15.55;;;;;;;2.05;71.68;96506.19;1731760;82;20338;-75
2022/02/02 10:19:32;;;;;;;28.38;14.25;;;;;;;2.04;71.79;96513.61;1731783;82;21048;-73
2022/02/02 10:21:58;;;;;;;31.05;15.38;;;;;;;2.02;71.38;96511.45;1731130;82;21537;-72
2022/02/02 10:24:46;;;;;;;37.33;16.77;;;;;;;2.02;70.58;96501.87;1733805;82;21398;-72
2022/02/02 10:27:32;;;;;;;33.50;13.60;;;;;;;2.02;70.42;96516.68;1732227;82;20993;-73
2022/02/02 10:30:12;;;;;;;28.57;13.25;;;;;;;2.00;69.38;96514.55;1733736;82;21044;-72
2022/02/02 10:32:43;;;;;;;27.67;13.10;;;;;;;1.97;69.48;96499.80;1734476;82;21668;-72
2022/02/02 10:35:30;;;;;;;31.10;13.20;;;;;;;1.96;69.82;96503.31;1724072;82;21072;-72
2022/02/02 10:38:06;;;;;;;33.02;12.78;;;;;;;1.98;69.49;96506.74;1715068;82;21021;-73
2022/02/02 10:40:55;;;;;;;29.15;13.83;;;;;;;2.03;69.96;96502.75;1734220;82;21056;-72
2022/02/02 10:43:41;;;;;;;27.25;13.80;;;;;;;2.03;69.82;96498.83;1722133;82;21006;-72
2022/02/02 10:46:28;;;;;;;28.12;13.40;;;;;;;2.03;70.41;96493.14;1724119;82;21003;-72
2022/02/02 10:48:55;;;;;;;33.28;13.95;;;;;;;2.10;70.57;96488.66;1732422;82;20985;-72
2022/02/02 10:54:14;;;;;;;29.90;14.13;;;;;;;2.16;70.01;96491.60;1743608;82;21036;-73
2022/02/02 10:56:44;;;;;;;28.98;15.05;;;;;;;2.14;70.14;96492.94;1701467;84;21086;-73
2022/02/02 11:06:44;;;;;;;31.23;13.93;;;;;;;1.97;69.94;96491.53;1705887;83;21010;-72
2022/02/02 11:09:14;;;;;;;28.32;14.43;;;;;;;1.95;70.21;96489.38;1718562;83;21398;-72
2022/02/02 11:11:46;;;;;;;30.12;15.10;;;;;;;2.01;70.25;96488.84;1720741;82;21076;-72
2022/02/02 11:14:26;;;;;;;31.33;14.68;;;;;;;2.14;70.84;96482.48;1727522;83;20974;-71
2022/02/02 11:17:04;;;;;;;32.30;15.13;;;;;;;2.24;70.80;96481.83;1724593;82;21044;-71
2022/02/02 11:19:34;;;;;;;30.15;15.25;;;;;;;2.34;70.03;96481.20;1717545;83;21080;-71
2022/02/02 11:22:22;;;;;;;32.53;14.95;;;;;;;2.31;69.98;96479.95;1717785;82;21056;-71
2022/02/02 11:24:50;;;;;;;36.48;17.00;;;;;;;2.26;70.01;96485.29;1712744;83;21055;-71
2022/02/02 11:27:46;;;;;;;38.10;17.23;;;;;;;2.19;70.03;96484.55;1713950;83;21005;-72
2022/02/02 11:30:29;;;;;;;34.33;15.48;;;;;;;2.13;70.19;96478.16;1712428;83;21007;-72
2022/02/02 11:33:03;;;;;;;29.30;15.32;;;;;;;2.17;70.64;96484.17;1708725;83;21033;-71
2022/02/02 11:35:46;;;;;;;37.08;15.75;;;;;;;2.13;69.87;96489.04;1707549;83;21479;-71
2022/02/02 11:38:23;;;;;;;38.25;17.00;;;;;;;2.04;69.95;96490.09;1716479;83;21032;-71
2022/02/02 11:41:16;;;;;;;35.23;14.50;;;;;;;1.98;70.05;96484.10;1714306;83;21056;-71
2022/02/02 11:49:53;;;;;;;31.70;14.10;;;;;;;1.89;70.55;96478.18;1713041;83;20958;-72
2022/02/02 11:52:33;;;;;;;28.80;14.35;;;;;;;1.87;70.94;96467.75;1717052;83;21488;-71
2022/02/02 11:55:02;;;;;;;36.15;16.23;;;;;;;1.86;71.13;96472.56;1718488;83;21062;-72
2022/02/02 11:57:36;;;;;;;32.93;15.88;;;;;;;1.83;71.04;96479.18;1722401;82;21134;-72
2022/02/02 12:00:28;;;;;;;28.15;14.45;;;;;;;1.80;71.09;96473.56;1746868;81;21004;-72
2022/02/02 13:03:14;;;;;;;31.68;15.98;;;;;;;1.76;71.80;96508.47;1731766;82;21388;-74
2022/02/02 13:05:45;;;;;;;34.13;15.90;;;;;;;1.75;71.90;96513.28;1751363;82;20996;-72
2022/02/02 13:08:12;;;;;;;35.00;16.52;;;;;;;1.75;71.91;96513.28;1752208;82;20976;-72
2022/02/02 13:10:39;;;;;;;32.70;16.30;;;;;;;1.76;72.02;96516.30;1753170;82;20980;-72
2022/02/02 13:13:22;;;;;;;34.25;15.30;;;;;;;1.76;72.24;96510.20;1753245;82;21024;-72
2022/02/02 13:15:52;;;;;;;32.98;16.20;;;;;;;1.79;72.35;96516.69;1752593;81;21049;-72
2022/02/02 13:18:27;;;;;;;29.63;16.30;;;;;;;1.76;72.25;96520.22;1752715;81;21005;-72
2022/02/02 13:21:02;;;;;;;36.77;16.25;;;;;;;1.70;72.21;96525.10;1753727;80;21007;-72
2022/02/02 13:24:10;;;;;;;33.13;16.93;;;;;;;1.68;72.27;96532.12;1753023;80;21007;-72
2022/02/02 13:27:00;;;;;;;35.83;16.20;;;;;;;1.64;72.23;96527.83;1752442;81;21015;-72
2022/02/02 13:29:30;;;;;;;36.20;17.05;;;;;;;1.57;72.60;96538.83;1751761;81;21040;-72
2022/02/02 13:32:15;;;;;;;38.20;17.03;;;;;;;1.53;72.66;96537.15;1759556;80;21035;-72
2022/02/02 13:35:04;;;;;;;34.53;16.42;;;;;;;1.52;72.75;96543.70;1752966;81;20992;-72
2022/02/02 13:37:49;;;;;;;38.05;16.70;;;;;;;1.47;72.96;96545.09;1751569;81;21027;-72
2022/02/02 13:51:34;;;;;;;34.40;17.30;;;;;;;1.38;73.45;96572.23;1723822;83;21047;-72
2022/02/02 13:55:12;;;;;;;34.90;16.23;;;;;;;1.38;73.45;96572.23;1742988;82;21334;-73
2022/02/02 14:02:18;;;;;;;37.08;17.42;;;;;;;1.33;73.65;96580.58;1736611;83;21506;-73
2022/02/02 14:05:04;;;;;;;34.60;17.17;;;;;;;1.31;74.02;96575.80;1736063;83;21537;-72
2022/02/02 14:07:42;;;;;;;34.33;16.77;;;;;;;1.28;73.72;96583.67;1721531;83;21059;-72
2022/02/02 14:10:15;;;;;;;36.38;16.50;;;;;;;1.27;73.74;96583.25;1720619;83;21421;-72
2022/02/02 14:31:37;;;;;;;38.92;17.87;;;;;;;0.88;75.22;96587.28;1726955;82;21009;-72
2022/02/02 14:34:05;;;;;;;39.13;18.42;;;;;;;0.89;74.92;96595.55;1724822;83;21028;-72
2022/02/02 14:36:36;;;;;;;34.18;16.97;;;;;;;0.87;74.97;96592.54;1725035;83;22135;-73
2022/02/02 14:39:17;;;;;;;32.17;16.82;;;;;;;0.86;75.13;96593.40;1727237;83;20997;-72
2022/02/02 14:41:48;;;;;;;34.55;17.32;;;;;;;0.86;75.09;96591.67;1724036;83;20997;-72
2022/02/02 14:44:21;;;;;;;35.63;17.15;;;;;;;0.83;76.17;96586.94;1724125;83;21019;-72
2022/02/02 14:46:56;;;;;;;37.65;17.32;;;;;;;0.75;76.38;96577.92;1723804;83;21469;-72
2022/02/02 14:49:19;;;;;;;38.42;16.85;;;;;;;0.69;76.33;96591.89;1727201;83;21010;-72
2022/02/02 15:28:49;;;;;;;39.67;17.25;;;;;;;0.42;75.81;96630.89;1753363;82;21088;-72
2022/02/02 15:31:15;;;;;;;33.38;16.65;;;;;;;0.42;76.19;96642.62;1753642;81;21422;-72
2022/02/02 15:33:44;;;;;;;64.82;34.23;;;;;;;0.42;76.03;96644.80;1734473;82;21509;-72
2022/02/02 15:38:45;;;;;;;38.40;16.85;;;;;;;0.41;75.95;96645.66;1722164;83;21482;-72
2022/02/02 15:41:24;;;;;;;35.95;16.10;;;;;;;0.42;76.15;96651.74;1722205;83;21061;-72
2022/02/02 15:58:06;;;;;;;40.30;18.17;;;;;;;0.37;75.92;96663.50;1723832;83;21008;-72
2022/02/02 16:00:14;;;;;;;37.67;16.67;;;;;;;0.34;76.00;96670.07;1720549;81;21040;-72
2022/02/02 16:02:21;;;;;;;36.17;16.97;;;;;;;0.30;76.06;96667.06;1719392;83;21056;-73
2022/02/02 16:04:44;;;;;;;38.92;17.70;;;;;;;0.30;76.11;96670.55;1734518;82;20988;-72
2022/02/02 16:07:20;;;;;;;43.98;19.02;;;;;;;0.30;76.39;96673.58;1756583;82;20969;-72
2022/02/02 16:09:48;;;;;;;38.98;17.82;;;;;;;0.25;77.35;96677.09;1754684;80;21028;-72
2022/02/02 16:12:19;;;;;;;35.80;16.90;;;;;;;0.24;77.32;96677.10;1752789;81;21099;-72
2022/02/02 16:14:46;;;;;;;37.78;17.62;;;;;;;0.23;77.07;96681.47;1740109;81;21029;-73
2022/02/02 16:36:00;;;;;;;41.15;19.40;;;;;;;0.14;76.79;96695.88;1752963;82;20110;-72
2022/02/02 16:38:22;;;;;;;42.80;18.77;;;;;;;0.15;76.88;96696.73;1752695;81;21432;-72
2022/02/02 16:40:50;;;;;;;38.70;19.05;;;;;;;0.12;76.74;96705.01;1734215;82;21040;-72
2022/02/02 16:43:19;;;;;;;47.38;21.05;;;;;;;0.11;76.84;96695.90;1727264;82;21027;-72
2022/02/02 16:45:52;;;;;;;38.88;19.70;;;;;;;0.09;76.99;96697.20;1722354;82;21012;-72
2022/02/02 16:48:22;;;;;;;45.83;19.32;;;;;;;0.11;77.12;96706.32;1722133;83;21080;-72
2022/02/02 16:50:52;;;;;;;38.75;18.10;;;;;;;0.11;77.02;96705.89;1740622;82;21004;-72
2022/02/02 16:56:06;;;;;;;34.13;18.07;;;;;;;0.12;77.11;96708.04;1722118;83;21013;-72
2022/02/02 17:31:01;;;;;;;49.58;22.37;;;;;;;0.11;78.61;96737.58;1737823;82;20978;-73
2022/02/02 17:36:12;;;;;;;47.03;22.40;;;;;;;0.06;79.43;96742.84;1708704;83;21065;-73
2022/02/02 17:38:51;;;;;;;60.08;27.10;;;;;;;0.09;79.19;96741.95;1704703;84;21057;-73
2022/02/02 17:44:25;;;;;;;;;;;;;;;0.08;78.91;96736.33;1709334;84;21446;-73
2022/02/02 18:20:57;;;;;;;56.37;28.60;;;;;;;0.11;80.84;96764.94;1737900;83;21036;-72
2022/02/02 18:23:34;;;;;;;57.50;28.73;;;;;;;0.13;81.23;96761.90;1729403;82;21009;-73
2022/02/02 18:26:12;;;;;;;60.88;27.42;;;;;;;0.19;82.40;96778.78;1724726;83;20969;-72
2022/02/02 18:28:44;;;;;;;55.45;24.77;;;;;;;0.19;81.76;96778.78;1723496;83;21029;-72
2022/02/02 18:50:06;;;;;;;50.43;22.45;;;;;;;-0.03;84.20;96798.45;1735079;83;20352;-72
2022/02/02 19:08:04;;;;;;;50.55;24.18;;;;;;;-0.18;83.43;96815.06;1750406;81;21386;-73
2022/02/02 19:40:34;;;;;;;49.18;25.10;;;;;;;-0.06;84.43;96837.99;1765654;80;21079;-71
2022/02/02 20:04:47;;;;;;;53.42;24.77;;;;;;;-0.08;84.30;96845.81;1707751;83;21061;-77
2022/02/02 20:12:25;;;;;;;50.38;23.05;;;;;;;-0.20;84.10;96841.98;1728342;83;21042;-81
2022/02/02 20:14:49;;;;;;;56.02;26.40;;;;;;;-0.29;84.11;96855.47;1727263;82;21014;-79
2022/02/02 20:17:18;;;;;;;115.92;46.23;;;;;;;-0.33;84.29;96855.51;1711210;83;21363;-75
2022/02/02 20:19:46;;;;;;;48.55;22.25;;;;;;;-0.38;84.41;96867.68;1726995;82;21056;-74
2022/02/02 20:22:16;;;;;;;45.95;22.98;;;;;;;-0.48;84.11;96873.34;1729065;82;21052;-76
2022/02/02 20:24:51;;;;;;;45.63;22.55;;;;;;;-0.49;84.64;96879.43;1733472;82;21404;-75
2022/02/02 20:27:13;;;;;;;49.13;22.17;;;;;;;-0.50;84.44;96883.75;1725082;82;21470;-75
2022/02/02 20:29:38;;;;;;;45.58;22.50;;;;;;;-0.54;84.33;96889.41;1729342;82;21033;-75
2022/02/02 20:32:06;;;;;;;47.17;21.33;;;;;;;-0.51;84.38;96895.50;1728118;82;21056;-75
2022/02/02 20:34:32;;;;;;;46.90;22.70;;;;;;;-0.52;84.60;96899.83;1723659;82;21324;-76
2022/02/02 20:36:59;;;;;;;44.42;23.00;;;;;;;-0.49;84.87;96906.76;1729221;82;21032;-76
2022/02/02 20:39:38;;;;;;;55.65;24.23;;;;;;;-0.44;84.56;96903.28;1727506;82;21063;-75
2022/02/02 20:41:55;;;;;;;43.28;20.77;;;;;;;-0.45;85.56;96906.73;1725226;82;21073;-75
2022/02/02 20:44:35;;;;;;;44.70;22.32;;;;;;;-0.47;85.94;96908.48;1727199;82;21425;-75
2022/02/02 21:10:32;;;;;;;56.98;26.85;;;;;;;-0.41;85.72;96951.41;1755570;80;21028;-74
2022/02/02 21:15:44;;;;;;;55.85;27.32;;;;;;;-0.24;86.09;96951.81;1750015;80;21012;-74
2022/02/02 21:20:54;;;;;;;57.45;26.80;;;;;;;-0.16;86.46;96986.48;1753930;80;20985;-74
2022/02/02 21:28:36;;;;;;;54.48;27.07;;;;;;;-0.07;86.30;96979.10;1713023;82;21008;-77
2022/02/02 21:31:05;;;;;;;56.48;27.77;;;;;;;-0.05;86.52;96981.25;1714842;82;21047;-77
2022/02/02 21:33:38;;;;;;;65.17;30.27;;;;;;;-0.03;86.21;96988.61;1716104;82;21087;-77
2022/02/02 21:36:01;;;;;;;58.85;27.98;;;;;;;-0.04;85.99;96989.48;1691405;83;21055;-76
2022/02/02 21:38:40;;;;;;;62.48;28.57;;;;;;;-0.03;85.70;96994.27;1715968;82;22221;-76
2022/02/02 21:40:59;;;;;;;61.95;28.30;;;;;;;-0.09;85.61;96987.80;1711049;82;21075;-77
2022/02/02 21:43:28;;;;;;;65.57;28.62;;;;;;;-0.07;85.92;96996.03;1723192;82;21047;-78
2022/02/02 21:45:56;;;;;;;63.98;28.52;;;;;;;-0.03;85.61;97004.69;1715966;81;21158;-75
2022/02/02 21:48:33;;;;;;;64.65;28.77;;;;;;;-0.06;85.55;97006.00;1717282;82;20985;-76
2022/02/02 21:51:00;;;;;;;61.80;28.40;;;;;;;-0.05;85.35;97011.20;1713797;82;21047;-76
2022/02/02 21:53:23;;;;;;;59.85;27.55;;;;;;;-0.07;85.56;97010.36;1713320;82;22183;-77
2022/02/02 21:55:50;;;;;;;55.85;27.05;;;;;;;-0.05;85.51;97016.41;1722378;82;21000;-76
2022/02/02 21:58:16;;;;;;;61.20;28.10;;;;;;;-0.03;85.34;97012.51;1715546;82;20973;-76
2022/02/02 22:00:44;;;;;;;59.85;27.48;;;;;;;-0.02;85.39;97016.84;1717204;82;21075;-76
2022/02/02 22:03:11;;;;;;;57.30;25.62;;;;;;;-0.02;85.58;97019.02;1711003;82;21481;-76
2022/02/02 22:05:39;;;;;;;58.63;24.77;;;;;;;-0.03;85.49;97022.93;1716610;82;21440;-76
2022/02/02 22:08:09;;;;;;;52.13;23.45;;;;;;;-0.01;85.25;97030.29;1723000;81;21485;-76
2022/02/02 22:10:36;;;;;;;55.10;23.77;;;;;;;-0.03;84.99;97036.80;1715589;82;21127;-76
2022/02/02 22:13:04;;;;;;;58.15;24.67;;;;;;;-0.03;85.02;97039.86;1720985;82;20980;-76
2022/02/02 22:15:40;;;;;;;66.17;28.52;;;;;;;-0.02;85.23;97038.56;1714082;82;21114;-76
2022/02/02 22:17:59;;;;;;;60.10;26.27;;;;;;;-0.05;85.48;97045.48;1713789;82;21036;-75
2022/02/02 22:20:26;;;;;;;55.83;27.22;;;;;;;-0.05;85.45;97048.09;1714438;82;21037;-76
2022/02/02 22:22:53;;;;;;;64.67;28.85;;;;;;;-0.03;85.40;97060.70;1714217;82;21059;-76
2022/02/02 22:25:21;;;;;;;64.95;27.60;;;;;;;-0.04;85.21;97064.18;1714427;82;21024;-77